CMA CGM Castilla — V7LZ7 — position and weather

sailwx.info

Track history (hours):
 
Tides and Currents Weather Stations Pressure Air Temp Water Temp Dewpoint Dewpoint Depression Visibility Wind Speed Wind Dir Waves Ship Positions

CMA CGM Castilla

Last reported at 2014-Nov-23 09:32 UTC. Time now 2014-Nov-27 08:20 UTC.
Position N 37°09' E 026°25'.

Length 194 m; beam 28.2 m; draft 11.5 m.

Type: Ship. MMSI: 538090285.

Date/timePositionNaut miles runAvg speedWind from/ knotsBaromVisibWave heightAir tempDewpointWater temp
2014-Nov-23 09:32N 37°09' E 026°25'1110.7
2014-Nov-23 08:33N 37°15' E 026°14'1010.5
2014-Nov-23 07:33N 37°22' E 026°04'1110.5
2014-Nov-23 06:33N 37°28' E 025°54'24010.4
2014-Nov-22 07:24N 40°53' E 028°36'1314.7
2014-Nov-22 06:31N 40°55' E 028°53'5 5.4
2014-Nov-22 05:33N 40°58' E 028°58'2210.4
2014-Nov-22 03:24N 41°19' E 029°08'43210.8
2014-Nov-20 11:26N 44°43' E 037°49'0 0.0
2014-Nov-20 10:32N 44°43' E 037°49'0 0.0
2014-Nov-20 09:32N 44°43' E 037°49'0 0.0
2014-Nov-20 08:32N 44°43' E 037°49'0 0.0
2014-Nov-20 07:32N 44°43' E 037°49'0 0.0
2014-Nov-20 06:32N 44°43' E 037°49'0 0.0
2014-Nov-20 05:32N 44°43' E 037°49'0 0.0
2014-Nov-20 04:29N 44°43' E 037°49'0 0.0
2014-Nov-20 03:32N 44°43' E 037°49'0 0.0
2014-Nov-20 02:32N 44°43' E 037°49'0 0.0
2014-Nov-20 01:32N 44°43' E 037°49'0 0.0
2014-Nov-20 00:32N 44°43' E 037°49'0 0.0
2014-Nov-19 23:32N 44°43' E 037°49'0 0.0
2014-Nov-19 22:32N 44°43' E 037°49'0 0.0
2014-Nov-19 21:32N 44°43' E 037°49'0 0.0
2014-Nov-19 20:32N 44°43' E 037°49'1 0.6
2014-Nov-19 19:34N 44°43' E 037°48'6 5.5
2014-Nov-19 18:34N 44°38' E 037°52'5 5.3
2014-Nov-19 17:34N 44°33' E 037°51'4 4.1
2014-Nov-19 16:33N 44°29' E 037°48'9 9.4
2014-Nov-19 15:33N 44°27' E 037°35'10314.6
2014-Nov-19 08:33N 44°14' E 035°13'1514.9
2014-Nov-19 07:33N 44°15' E 034°52'1414.0
2014-Nov-19 06:33N 44°16' E 034°33'1313.4
2014-Nov-19 05:33N 44°15' E 034°14'4711.5
2014-Nov-19 01:31N 44°28' E 033°12'1312.9
2014-Nov-19 00:31N 44°38' E 032°60'  
2014-Nov-15 13:27N 38°03' E 025°32'9 9.9
2014-Nov-15 12:33N 37°55' E 025°29'10 9.8
2014-Nov-15 11:33N 37°46' E 025°25'10 9.8
2014-Nov-15 10:33N 37°36' E 025°20'9 9.2
2014-Nov-15 09:33N 37°29' E 025°13'1010.2
2014-Nov-15 08:33N 37°26' E 025°01'2 2.1
2014-Nov-15 07:33N 37°25' E 024°59'0 0.0
2014-Nov-15 06:33N 37°25' E 024°59'0 0.0
2014-Nov-15 05:33N 37°25' E 024°59'0 0.0
2014-Nov-15 04:33N 37°25' E 024°59'0 0.0
2014-Nov-15 03:33N 37°25' E 024°59'0 0.0
2014-Nov-15 02:33N 37°25' E 024°59'0 0.0
2014-Nov-15 01:33N 37°25' E 024°59'0 0.1
2014-Nov-15 00:33N 37°25' E 024°59'0 0.0
2014-Nov-14 23:33N 37°25' E 024°59'4 4.1
2014-Nov-14 22:34N 37°23' E 025°03'1111.0
2014-Nov-14 21:33N 37°19' E 025°16'1111.3
2014-Nov-14 20:33N 37°16' E 025°30'1111.1
2014-Nov-14 19:34N 37°13' E 025°43'1110.7
2014-Nov-14 18:33N 37°09' E 025°56'1010.5
2014-Nov-14 17:33N 37°02' E 026°06'1110.9
2014-Nov-14 16:33N 36°55' E 026°16'1111.3
2014-Nov-14 15:33N 36°49' E 026°28'  
Track history (hours):
 
Tides and Currents Weather Stations Pressure Air Temp Water Temp Dewpoint Dewpoint Depression Visibility Wind Speed Wind Dir Waves Ship Positions

CMA CGM Castilla

Last reported at 2014-Nov-23 09:32 UTC. Time now 2014-Nov-27 08:20 UTC.
Position N 37°09' E 026°25'.

Length 194 m; beam 28.2 m; draft 11.5 m.

Type: Ship. MMSI: 538090285.

Date/timePositionNaut miles runAvg speedWind from/ knotsBaromVisibWave heightAir tempDewpointWater temp
2014-Nov-23 09:32N 37°09' E 026°25'1110.7
2014-Nov-23 08:33N 37°15' E 026°14'1010.5
2014-Nov-23 07:33N 37°22' E 026°04'1110.5
2014-Nov-23 06:33N 37°28' E 025°54'24010.4
2014-Nov-22 07:24N 40°53' E 028°36'1314.7
2014-Nov-22 06:31N 40°55' E 028°53'5 5.4
2014-Nov-22 05:33N 40°58' E 028°58'2210.4
2014-Nov-22 03:24N 41°19' E 029°08'43210.8
2014-Nov-20 11:26N 44°43' E 037°49'0 0.0
2014-Nov-20 10:32N 44°43' E 037°49'0 0.0
2014-Nov-20 09:32N 44°43' E 037°49'0 0.0
2014-Nov-20 08:32N 44°43' E 037°49'0 0.0
2014-Nov-20 07:32N 44°43' E 037°49'0 0.0
2014-Nov-20 06:32N 44°43' E 037°49'0 0.0
2014-Nov-20 05:32N 44°43' E 037°49'0 0.0
2014-Nov-20 04:29N 44°43' E 037°49'0 0.0
2014-Nov-20 03:32N 44°43' E 037°49'0 0.0
2014-Nov-20 02:32N 44°43' E 037°49'0 0.0
2014-Nov-20 01:32N 44°43' E 037°49'0 0.0
2014-Nov-20 00:32N 44°43' E 037°49'0 0.0
2014-Nov-19 23:32N 44°43' E 037°49'0 0.0
2014-Nov-19 22:32N 44°43' E 037°49'0 0.0
2014-Nov-19 21:32N 44°43' E 037°49'0 0.0
2014-Nov-19 20:32N 44°43' E 037°49'1 0.6
2014-Nov-19 19:34N 44°43' E 037°48'6 5.5
2014-Nov-19 18:34N 44°38' E 037°52'5 5.3
2014-Nov-19 17:34N 44°33' E 037°51'4 4.1
2014-Nov-19 16:33N 44°29' E 037°48'9 9.4
2014-Nov-19 15:33N 44°27' E 037°35'10314.6
2014-Nov-19 08:33N 44°14' E 035°13'1514.9
2014-Nov-19 07:33N 44°15' E 034°52'1414.0
2014-Nov-19 06:33N 44°16' E 034°33'1313.4
2014-Nov-19 05:33N 44°15' E 034°14'4711.5
2014-Nov-19 01:31N 44°28' E 033°12'1312.9
2014-Nov-19 00:31N 44°38' E 032°60'  
2014-Nov-15 13:27N 38°03' E 025°32'9 9.9
2014-Nov-15 12:33N 37°55' E 025°29'10 9.8
2014-Nov-15 11:33N 37°46' E 025°25'10 9.8
2014-Nov-15 10:33N 37°36' E 025°20'9 9.2
2014-Nov-15 09:33N 37°29' E 025°13'1010.2
2014-Nov-15 08:33N 37°26' E 025°01'2 2.1
2014-Nov-15 07:33N 37°25' E 024°59'0 0.0
2014-Nov-15 06:33N 37°25' E 024°59'0 0.0
2014-Nov-15 05:33N 37°25' E 024°59'0 0.0
2014-Nov-15 04:33N 37°25' E 024°59'0 0.0
2014-Nov-15 03:33N 37°25' E 024°59'0 0.0
2014-Nov-15 02:33N 37°25' E 024°59'0 0.0
2014-Nov-15 01:33N 37°25' E 024°59'0 0.1
2014-Nov-15 00:33N 37°25' E 024°59'0 0.0
2014-Nov-14 23:33N 37°25' E 024°59'4 4.1
2014-Nov-14 22:34N 37°23' E 025°03'1111.0
2014-Nov-14 21:33N 37°19' E 025°16'1111.3
2014-Nov-14 20:33N 37°16' E 025°30'1111.1
2014-Nov-14 19:34N 37°13' E 025°43'1110.7
2014-Nov-14 18:33N 37°09' E 025°56'1010.5
2014-Nov-14 17:33N 37°02' E 026°06'1110.9
2014-Nov-14 16:33N 36°55' E 026°16'1111.3
2014-Nov-14 15:33N 36°49' E 026°28'  

Dump ship's entire track history